createdAt,value
2022-12-15T00:01:38.800Z,68.00
2022-12-15T00:04:43.335Z,83.20
2022-12-15T00:07:48.268Z,78.00
2022-12-15T00:10:53.010Z,73.30
2022-12-15T00:13:57.805Z,65.00
2022-12-15T00:17:02.628Z,71.80
2022-12-15T00:20:07.263Z,82.90
2022-12-15T00:23:12.314Z,67.80
2022-12-15T00:26:17.671Z,22.40
2022-12-15T00:29:22.423Z,28.80
2022-12-15T00:32:27.023Z,67.70
2022-12-15T00:35:32.236Z,79.40
2022-12-15T00:38:36.997Z,65.70
2022-12-15T00:41:23.440Z,74.40
2022-12-15T00:44:09.686Z,52.70
2022-12-15T00:46:56.294Z,42.10
2022-12-15T00:50:01.349Z,61.40
2022-12-15T00:53:05.876Z,58.50
2022-12-15T00:56:10.454Z,62.50
2022-12-15T00:59:15.411Z,45.90
2022-12-15T01:02:20.969Z,63.60
2022-12-15T01:05:26.508Z,70.70
2022-12-15T01:08:31.261Z,64.00
2022-12-15T01:11:36.136Z,37.20
2022-12-15T01:14:40.991Z,40.20
2022-12-15T01:17:45.683Z,41.60
2022-12-15T01:20:34.645Z,16.90
2022-12-15T01:23:21.037Z,34.10
2022-12-15T01:26:08.434Z,52.70
2022-12-15T01:28:55.039Z,67.30
2022-12-15T01:31:41.949Z,59.90
2022-12-15T01:34:28.199Z,65.80
2022-12-15T01:37:14.578Z,76.50
2022-12-15T01:40:19.431Z,62.40
2022-12-15T01:43:13.912Z,67.20
2022-12-15T01:46:10.060Z,64.40
2022-12-15T01:49:02.780Z,60.90
2022-12-15T01:51:52.357Z,55.80
2022-12-15T01:54:42.852Z,61.70
2022-12-15T01:57:29.719Z,67.00
2022-12-15T02:00:16.453Z,62.30
2022-12-15T02:03:03.096Z,35.10
2022-12-15T02:05:49.694Z,55.80
2022-12-15T02:08:36.604Z,59.30
2022-12-15T02:11:36.557Z,60.00
2022-12-15T02:14:55.356Z,44.90
2022-12-15T02:17:58.109Z,55.20
2022-12-15T02:20:50.484Z,22.80
2022-12-15T02:23:52.160Z,40.60
2022-12-15T02:27:16.149Z,52.60
2022-12-15T02:30:26.353Z,56.50
2022-12-15T02:33:12.903Z,41.20
2022-12-15T02:36:25.785Z,42.10
2022-12-15T02:39:12.438Z,32.10
2022-12-15T02:41:58.618Z,51.10
2022-12-15T02:44:53.455Z,59.10
2022-12-15T02:48:21.247Z,45.90
2022-12-15T02:51:32.918Z,48.00
2022-12-15T02:54:43.680Z,50.00
2022-12-15T02:57:51.610Z,30.00
2022-12-15T03:00:39.414Z,45.40
2022-12-15T03:03:26.056Z,58.90
2022-12-15T03:06:12.677Z,21.90
2022-12-15T03:08:58.979Z,53.10
2022-12-15T03:11:45.287Z,62.70
2022-12-15T03:14:31.412Z,42.30
2022-12-15T03:17:17.724Z,52.40
2022-12-15T03:20:05.347Z,59.70
2022-12-15T03:22:51.774Z,53.50
2022-12-15T03:25:38.288Z,57.00
2022-12-15T03:28:24.508Z,52.60
2022-12-15T03:31:10.934Z,54.70
2022-12-15T03:33:57.439Z,61.70
2022-12-15T03:36:43.746Z,39.40
2022-12-15T03:39:30.600Z,46.60
2022-12-15T03:42:36.977Z,36.70
2022-12-15T03:45:25.170Z,21.10
2022-12-15T03:48:11.695Z,11.50
2022-12-15T03:50:59.240Z,46.90
2022-12-15T03:53:47.502Z,20.90
2022-12-15T03:56:33.884Z,48.30
2022-12-15T03:59:20.337Z,52.30
2022-12-15T04:02:07.058Z,44.20
2022-12-15T04:04:53.408Z,38.10
2022-12-15T04:07:39.868Z,51.00
2022-12-15T04:10:33.952Z,45.90
2022-12-15T04:13:21.331Z,38.90
2022-12-15T04:16:08.047Z,67.50
2022-12-15T04:19:14.603Z,31.70
2022-12-15T04:22:03.611Z,36.10
2022-12-15T04:25:08.843Z,40.90
2022-12-15T04:28:13.480Z,33.00
2022-12-15T04:31:21.788Z,36.80
2022-12-15T04:37:33.884Z,51.90
2022-12-15T04:40:38.711Z,54.10
2022-12-15T04:43:43.436Z,52.00
2022-12-15T04:46:47.710Z,56.90
2022-12-15T04:49:52.344Z,45.00
2022-12-15T04:52:57.216Z,38.10
2022-12-15T04:56:02.167Z,29.00
2022-12-15T04:59:07.248Z,24.10
2022-12-15T05:02:12.218Z,42.70
2022-12-15T05:05:16.827Z,41.70
2022-12-15T05:08:21.692Z,35.40
2022-12-15T05:11:26.505Z,45.00
2022-12-15T05:14:31.152Z,32.40
2022-12-15T05:17:41.467Z,42.60
2022-12-15T05:20:46.479Z,33.10
2022-12-15T05:23:55.224Z,45.40
2022-12-15T05:27:00.118Z,50.90
2022-12-15T05:30:05.057Z,39.10
2022-12-15T05:32:51.432Z,40.00
2022-12-15T05:35:37.981Z,40.60
2022-12-15T05:38:24.403Z,37.60
2022-12-15T05:41:10.872Z,39.20
2022-12-15T05:43:57.223Z,30.40
2022-12-15T05:46:44.390Z,31.60
2022-12-15T05:49:30.796Z,33.20
2022-12-15T05:52:17.459Z,31.60
2022-12-15T05:55:03.848Z,31.20
2022-12-15T05:57:52.108Z,34.40
2022-12-15T06:00:39.198Z,25.40
2022-12-15T06:03:25.351Z,29.70
2022-12-15T06:06:11.956Z,39.30
2022-12-15T06:08:58.554Z,34.60
2022-12-15T06:11:44.925Z,37.10
2022-12-15T06:14:31.316Z,37.30
2022-12-15T06:17:17.470Z,19.00
2022-12-15T06:20:04.541Z,32.90
2022-12-15T06:22:51.085Z,36.60
2022-12-15T06:25:37.758Z,37.30
2022-12-15T06:28:25.043Z,30.70
2022-12-15T06:31:11.822Z,31.70
2022-12-15T06:34:02.043Z,33.50
2022-12-15T06:36:48.955Z,36.10
2022-12-15T06:39:35.287Z,24.10
2022-12-15T06:42:21.856Z,23.80
2022-12-15T06:45:08.870Z,34.80
2022-12-15T06:48:01.173Z,33.10
2022-12-15T06:50:50.142Z,24.50
2022-12-15T06:53:37.957Z,34.20
2022-12-15T06:56:32.464Z,28.40
2022-12-15T06:59:20.408Z,27.50
2022-12-15T07:02:10.116Z,30.40
2022-12-15T07:04:56.580Z,25.10
2022-12-15T07:07:42.869Z,33.80
2022-12-15T07:10:29.371Z,43.90
2022-12-15T07:13:15.489Z,32.10
2022-12-15T07:16:02.731Z,34.00
2022-12-15T07:18:49.293Z,31.70
2022-12-15T07:21:35.578Z,23.80
2022-12-15T07:24:22.417Z,25.70
2022-12-15T07:27:09.239Z,17.60
2022-12-15T07:29:55.856Z,19.60
2022-12-15T07:32:42.438Z,25.30
2022-12-15T07:35:28.767Z,24.30
2022-12-15T07:38:15.508Z,24.80
2022-12-15T07:41:03.179Z,24.20
2022-12-15T07:43:49.445Z,23.10
2022-12-15T07:46:35.941Z,27.40
2022-12-15T07:49:22.284Z,22.50
2022-12-15T07:52:08.395Z,24.90
2022-12-15T07:54:54.791Z,27.70
2022-12-15T07:57:41.091Z,19.50
2022-12-15T08:00:28.292Z,18.30
2022-12-15T08:03:14.704Z,21.50
2022-12-15T08:06:07.954Z,20.60
2022-12-15T08:08:54.790Z,17.40
2022-12-15T08:11:41.324Z,14.60
2022-12-15T08:14:29.306Z,25.50
2022-12-15T08:17:16.073Z,44.10
2022-12-15T08:20:09.526Z,30.70
2022-12-15T08:22:56.122Z,19.80
2022-12-15T08:25:43.243Z,24.50
2022-12-15T08:28:29.302Z,27.90
2022-12-15T08:31:17.468Z,26.10
2022-12-15T08:34:04.736Z,19.50
2022-12-15T08:36:51.368Z,27.70
2022-12-15T08:39:37.803Z,27.00
2022-12-15T08:42:24.391Z,22.50
2022-12-15T08:45:12.263Z,24.30
2022-12-15T08:47:58.646Z,22.70
2022-12-15T08:50:45.755Z,15.60
2022-12-15T08:53:32.374Z,24.20
2022-12-15T08:56:19.630Z,25.10
2022-12-15T08:59:05.719Z,25.70
2022-12-15T09:01:52.478Z,20.90
2022-12-15T09:04:39.105Z,28.70
2022-12-15T09:07:25.640Z,22.10
2022-12-15T09:10:11.956Z,19.90
2022-12-15T09:12:58.415Z,20.30
2022-12-15T09:16:11.611Z,17.60
2022-12-15T09:18:54.841Z,16.20
2022-12-15T09:21:44.993Z,16.80
2022-12-15T09:24:35.016Z,21.50
2022-12-15T09:27:21.989Z,23.60
2022-12-15T09:30:09.468Z,20.10
2022-12-15T09:32:55.751Z,18.80
2022-12-15T09:35:41.761Z,19.00
2022-12-15T09:38:28.068Z,17.80
2022-12-15T09:41:17.235Z,20.90
2022-12-15T09:44:14.192Z,19.40
2022-12-15T09:47:37.349Z,19.60
2022-12-15T09:50:27.974Z,51.10
2022-12-15T09:56:28.956Z,21.20
2022-12-15T09:59:27.205Z,26.60
2022-12-15T10:02:29.805Z,48.70
2022-12-15T10:05:57.531Z,18.20
2022-12-15T10:09:00.095Z,25.50
2022-12-15T10:12:00.672Z,8.80
2022-12-15T10:15:05.006Z,16.80
2022-12-15T10:18:05.522Z,16.60
2022-12-15T10:20:54.921Z,21.10
2022-12-15T10:23:41.468Z,16.30
2022-12-15T10:26:32.008Z,15.90
2022-12-15T10:29:36.196Z,10.80
2022-12-15T10:32:50.984Z,27.20
2022-12-15T10:35:39.751Z,18.70
2022-12-15T10:38:33.159Z,16.10
2022-12-15T10:41:20.805Z,18.60
2022-12-15T10:44:21.782Z,23.40
2022-12-15T10:47:11.646Z,19.60
2022-12-15T10:50:24.105Z,30.60
2022-12-15T10:53:45.279Z,17.70
2022-12-15T10:56:50.236Z,18.30
2022-12-15T10:59:38.366Z,9.50
2022-12-15T11:02:44.995Z,16.20
2022-12-15T11:05:33.529Z,19.40
2022-12-15T11:08:20.258Z,18.50
2022-12-15T11:18:02.825Z,23.10
2022-12-15T11:20:56.766Z,18.40
2022-12-15T11:23:59.061Z,17.10
2022-12-15T11:30:15.792Z,21.50
2022-12-15T11:33:02.035Z,20.50
2022-12-15T11:36:16.768Z,23.70
2022-12-15T11:39:08.650Z,21.90
2022-12-15T11:42:01.119Z,19.70
2022-12-15T11:45:19.400Z,17.50
2022-12-15T11:48:12.700Z,23.00
2022-12-15T11:51:00.369Z,25.50
2022-12-15T11:54:04.990Z,19.40
2022-12-15T11:57:04.142Z,12.20
2022-12-15T12:00:10.593Z,20.60
2022-12-15T12:03:31.351Z,17.80
2022-12-15T12:06:26.700Z,18.30
2022-12-15T12:09:18.323Z,18.70
2022-12-15T12:12:20.365Z,13.80
2022-12-15T12:15:40.671Z,18.90
2022-12-15T12:18:36.157Z,16.60
2022-12-15T12:21:25.602Z,11.50
2022-12-15T12:24:18.279Z,22.70
2022-12-15T12:27:10.416Z,19.60
2022-12-15T12:30:14.948Z,22.40
2022-12-15T12:33:11.394Z,20.60
2022-12-15T12:38:51.567Z,17.50
2022-12-15T12:42:14.565Z,21.90
2022-12-15T12:45:01.861Z,18.50
2022-12-15T12:47:50.194Z,15.30
2022-12-15T12:50:36.710Z,21.80
2022-12-15T12:53:33.513Z,33.20
2022-12-15T12:56:39.247Z,21.10
2022-12-15T12:59:31.535Z,15.40
2022-12-15T13:02:20.681Z,25.30
2022-12-15T13:05:26.739Z,17.30
2022-12-15T13:08:13.538Z,20.80
2022-12-15T13:11:00.083Z,22.20
2022-12-15T13:13:51.072Z,18.60
2022-12-15T13:16:40.491Z,20.70
2022-12-15T13:19:59.229Z,13.50
2022-12-15T13:22:45.319Z,18.00
2022-12-15T13:25:40.142Z,17.60
2022-12-15T13:28:44.504Z,19.00
2022-12-15T13:31:32.807Z,17.90
2022-12-15T13:34:23.914Z,20.70
2022-12-15T13:37:44.301Z,18.50
2022-12-15T13:40:36.548Z,17.80
2022-12-15T13:43:32.460Z,20.90
2022-12-15T13:46:27.192Z,15.00
2022-12-15T13:49:43.165Z,20.90
2022-12-15T13:53:08.546Z,21.00
2022-12-15T13:56:01.189Z,17.30
2022-12-15T13:58:50.890Z,19.80
2022-12-15T14:01:37.374Z,18.70
2022-12-15T14:04:23.911Z,23.60
2022-12-15T14:07:10.602Z,25.00
2022-12-15T14:09:57.267Z,47.70
2022-12-15T14:12:46.030Z,115.30
2022-12-15T14:15:35.375Z,80.80
2022-12-15T14:18:27.052Z,79.70
2022-12-15T14:21:24.090Z,74.10
2022-12-15T14:24:39.911Z,203.30
2022-12-15T14:27:28.885Z,89.50
2022-12-15T14:30:24.853Z,49.20
2022-12-15T14:33:13.691Z,83.20
2022-12-15T14:36:00.561Z,205.10
2022-12-15T14:38:51.459Z,139.80
2022-12-15T14:41:39.809Z,112.10
2022-12-15T14:44:32.193Z,131.10
2022-12-15T14:47:28.474Z,143.90
2022-12-15T14:50:17.561Z,109.30
2022-12-15T14:53:15.292Z,106.20
2022-12-15T14:59:31.233Z,67.10
2022-12-15T15:02:28.424Z,73.70
2022-12-15T15:03:04.700Z,21.30
2022-12-15T15:03:09.370Z,22.30
2022-12-15T15:03:14.541Z,97.00
2022-12-15T15:05:25.861Z,81.70
2022-12-15T15:08:19.743Z,68.10
2022-12-15T15:11:30.003Z,62.90
2022-12-15T15:14:48.980Z,58.80
2022-12-15T15:17:38.915Z,93.00
2022-12-15T15:20:29.480Z,64.00
2022-12-15T15:23:17.273Z,64.00
2022-12-15T15:26:06.648Z,47.80
2022-12-15T15:28:53.218Z,50.10
2022-12-15T15:31:42.167Z,44.40
2022-12-15T15:34:28.797Z,50.70
2022-12-15T15:37:23.407Z,49.30
2022-12-15T15:40:11.410Z,52.70
2022-12-15T15:42:58.220Z,44.90
2022-12-15T15:45:44.974Z,52.10
2022-12-15T15:48:36.665Z,51.40
2022-12-15T15:51:27.433Z,60.70
2022-12-15T15:54:16.214Z,53.70
2022-12-15T15:57:02.631Z,56.40
2022-12-15T15:59:48.918Z,59.30
2022-12-15T16:02:35.441Z,87.30
2022-12-15T16:05:22.081Z,77.40
2022-12-15T16:08:13.833Z,72.30
2022-12-15T16:11:00.198Z,71.20
2022-12-15T16:13:46.631Z,61.30
2022-12-15T16:16:33.536Z,48.90
2022-12-15T16:19:19.545Z,39.00
2022-12-15T16:22:05.998Z,43.00
2022-12-15T16:24:52.304Z,44.90
2022-12-15T16:27:38.739Z,62.50
2022-12-15T16:30:26.444Z,54.90
2022-12-15T16:33:13.414Z,53.70
2022-12-15T16:35:59.786Z,58.10
2022-12-15T16:38:46.289Z,40.60
2022-12-15T16:41:32.652Z,48.00
2022-12-15T16:44:18.718Z,41.40
2022-12-15T16:47:05.220Z,48.20
2022-12-15T16:49:51.588Z,75.00
2022-12-15T16:52:38.414Z,73.70
2022-12-15T16:55:27.512Z,53.90
2022-12-15T16:58:17.869Z,55.10
2022-12-15T17:01:04.446Z,55.60
2022-12-15T17:03:50.757Z,47.00
2022-12-15T17:06:37.180Z,41.40
2022-12-15T17:09:23.840Z,38.30
2022-12-15T17:12:13.325Z,47.60
2022-12-15T17:15:02.373Z,55.40
2022-12-15T17:17:49.379Z,34.00
2022-12-15T17:20:36.156Z,88.50
2022-12-15T17:23:22.300Z,81.40
2022-12-15T17:26:25.751Z,83.00
2022-12-15T17:29:16.940Z,105.80
2022-12-15T17:32:03.698Z,99.90
2022-12-15T17:34:50.009Z,91.20
2022-12-15T17:37:36.789Z,70.00
2022-12-15T17:40:23.627Z,66.10
2022-12-15T17:43:14.089Z,68.40
2022-12-15T17:46:00.127Z,73.60
2022-12-15T17:48:46.764Z,76.60
2022-12-15T17:51:33.441Z,66.80
2022-12-15T17:54:19.936Z,60.80
2022-12-15T17:57:06.417Z,74.20
2022-12-15T17:59:52.825Z,67.50
2022-12-15T18:02:39.425Z,77.90
2022-12-15T18:05:27.447Z,84.00
2022-12-15T18:08:16.884Z,73.20
2022-12-15T18:11:03.366Z,65.40
2022-12-15T18:13:49.991Z,60.10
2022-12-15T18:16:36.358Z,57.40
2022-12-15T18:19:23.335Z,53.50
2022-12-15T18:22:14.369Z,49.90
2022-12-15T18:25:00.828Z,61.50
2022-12-15T18:27:47.855Z,51.30
2022-12-15T18:30:34.551Z,63.00
2022-12-15T18:33:21.156Z,58.70
2022-12-15T18:36:08.917Z,55.40
2022-12-15T18:38:55.257Z,54.70
2022-12-15T18:41:42.252Z,56.30
2022-12-15T18:44:30.081Z,57.90
2022-12-15T18:47:17.717Z,56.40
2022-12-15T18:50:04.784Z,52.70
2022-12-15T18:52:57.961Z,65.70
2022-12-15T18:55:44.078Z,71.80
2022-12-15T18:58:34.994Z,90.40
2022-12-15T19:01:21.209Z,124.00
2022-12-15T19:04:07.498Z,106.60
2022-12-15T19:06:54.018Z,109.00
2022-12-15T19:09:40.659Z,113.10
2022-12-15T19:12:26.912Z,107.80
2022-12-15T19:15:17.312Z,104.90
2022-12-15T19:18:22.525Z,125.20
2022-12-15T19:21:34.206Z,98.90
2022-12-15T19:24:47.024Z,113.70
2022-12-15T19:27:33.205Z,127.00
2022-12-15T19:30:20.009Z,103.10
2022-12-15T19:33:06.810Z,102.10
2022-12-15T19:35:55.520Z,105.30
2022-12-15T19:38:41.802Z,78.00
2022-12-15T19:41:28.551Z,92.60
2022-12-15T19:44:14.994Z,96.30
2022-12-15T19:47:01.354Z,93.10
2022-12-15T19:49:47.914Z,95.30
2022-12-15T19:52:34.210Z,97.20
2022-12-15T19:55:24.039Z,97.10
2022-12-15T19:58:27.899Z,97.00
2022-12-15T20:01:15.919Z,99.70
2022-12-15T20:04:02.282Z,93.60
2022-12-15T20:06:49.137Z,88.60
2022-12-15T20:09:35.461Z,115.30
2022-12-15T20:12:22.694Z,116.90
2022-12-15T20:15:16.307Z,125.10
2022-12-15T20:18:02.877Z,106.80
2022-12-15T20:20:49.666Z,87.60
2022-12-15T20:23:36.353Z,88.30
2022-12-15T20:26:22.919Z,87.40
2022-12-15T20:29:25.476Z,125.10
2022-12-15T20:32:19.466Z,130.60
2022-12-15T20:35:06.104Z,115.30
2022-12-15T20:37:52.699Z,121.70
2022-12-15T20:40:38.937Z,108.50
2022-12-15T20:43:26.249Z,102.50
2022-12-15T20:46:16.184Z,101.20
2022-12-15T20:49:02.687Z,115.00
2022-12-15T20:51:49.224Z,111.40
2022-12-15T20:54:35.992Z,106.90
2022-12-15T20:57:22.289Z,104.10
2022-12-15T21:00:09.774Z,96.70
2022-12-15T21:02:56.702Z,95.70
2022-12-15T21:05:43.507Z,102.30
2022-12-15T21:08:31.002Z,137.00
2022-12-15T21:11:22.551Z,121.20
2022-12-15T21:14:27.127Z,90.70
2022-12-15T21:17:21.061Z,86.30
2022-12-15T21:20:08.031Z,76.70
2022-12-15T21:22:54.355Z,92.80
2022-12-15T21:25:41.316Z,80.40
2022-12-15T21:28:27.842Z,86.80
2022-12-15T21:31:34.251Z,90.70
2022-12-15T21:34:20.339Z,85.10
2022-12-15T21:37:18.009Z,86.90
2022-12-15T21:40:05.173Z,78.30
2022-12-15T21:42:51.363Z,77.80
2022-12-15T21:45:37.989Z,78.00
2022-12-15T21:48:43.252Z,81.00
2022-12-15T21:51:34.647Z,79.20
2022-12-15T21:57:29.384Z,74.30
2022-12-15T22:00:17.393Z,82.30
2022-12-15T22:03:03.633Z,70.90
2022-12-15T22:05:49.697Z,85.40
2022-12-15T22:08:36.264Z,76.90
2022-12-15T22:11:26.488Z,83.20
2022-12-15T22:14:34.182Z,97.50
2022-12-15T22:17:21.738Z,100.80
2022-12-15T22:20:19.837Z,96.70
2022-12-15T22:23:05.925Z,88.50
2022-12-15T22:25:54.709Z,95.20
2022-12-15T22:28:40.886Z,97.50
2022-12-15T22:31:27.724Z,93.00
2022-12-15T22:34:16.208Z,84.10
2022-12-15T22:37:02.456Z,95.30
2022-12-15T22:39:49.636Z,88.60
2022-12-15T22:42:39.041Z,86.60
2022-12-15T22:45:25.602Z,91.70
2022-12-15T22:48:13.878Z,82.20
2022-12-15T22:51:00.955Z,81.30
2022-12-15T22:53:47.324Z,80.60
2022-12-15T22:56:37.195Z,77.70
2022-12-15T22:59:43.252Z,88.10
2022-12-15T23:02:32.867Z,60.30
2022-12-15T23:05:19.462Z,82.80
2022-12-15T23:08:05.783Z,90.60
2022-12-15T23:11:10.775Z,67.00
2022-12-15T23:13:57.135Z,70.20
2022-12-15T23:16:44.224Z,80.60
2022-12-15T23:19:30.589Z,75.50
2022-12-15T23:22:17.291Z,55.00
2022-12-15T23:25:04.761Z,81.40
2022-12-15T23:27:51.602Z,83.60
2022-12-15T23:30:38.678Z,81.80
2022-12-15T23:33:26.641Z,76.90
2022-12-15T23:36:12.963Z,81.00
2022-12-15T23:38:59.159Z,77.50
2022-12-15T23:41:45.370Z,82.80
2022-12-15T23:44:31.980Z,81.60
2022-12-15T23:47:18.029Z,80.00
2022-12-15T23:50:04.808Z,86.30
2022-12-15T23:52:51.922Z,78.60
2022-12-15T23:55:38.332Z,86.30
2022-12-15T23:58:24.511Z,74.90
